sensor_id;sensor_type;location;lat;lon;timestamp;temperature;humidity
23452;DHT22;11898;51.130;6.780;2022-10-20T10:27:30;13.70;99.90
23452;DHT22;11898;51.130;6.780;2022-10-20T10:30:25;15.80;99.90
23452;DHT22;11898;51.130;6.780;2022-10-20T10:33:26;15.70;99.90
23452;DHT22;11898;51.130;6.780;2022-10-20T10:35:56;15.70;99.90
23452;DHT22;11898;51.130;6.780;2022-10-20T10:38:25;15.80;99.90
23452;DHT22;11898;51.130;6.780;2022-10-20T10:41:30;15.80;99.90
23452;DHT22;11898;51.130;6.780;2022-10-20T10:43:59;15.80;99.90
23452;DHT22;11898;51.130;6.780;2022-10-20T10:46:35;15.60;99.90
23452;DHT22;11898;51.130;6.780;2022-10-20T10:49:25;15.60;99.90
23452;DHT22;11898;51.130;6.780;2022-10-20T10:57:30;15.40;99.90
23452;DHT22;11898;51.130;6.780;2022-10-20T11:00:05;15.40;99.90
23452;DHT22;11898;51.130;6.780;2022-10-20T11:08:48;15.30;99.90
23452;DHT22;11898;51.130;6.780;2022-10-20T11:14:47;15.20;99.90
23452;DHT22;11898;51.130;6.780;2022-10-20T11:17:32;15.20;99.90
23452;DHT22;11898;51.130;6.780;2022-10-20T11:20:07;15.10;99.90
23452;DHT22;11898;51.130;6.780;2022-10-20T11:22:52;14.90;99.90
23452;DHT22;11898;51.130;6.780;2022-10-20T11:28:30;14.90;99.90
23452;DHT22;11898;51.130;6.780;2022-10-20T11:30:58;15.00;99.90
23452;DHT22;11898;51.130;6.780;2022-10-20T11:33:35;15.00;99.90
23452;DHT22;11898;51.130;6.780;2022-10-20T11:36:09;15.00;99.90
23452;DHT22;11898;51.130;6.780;2022-10-20T11:38:49;14.90;99.90
23452;DHT22;11898;51.130;6.780;2022-10-20T11:41:33;14.80;99.90
23452;DHT22;11898;51.130;6.780;2022-10-20T11:44:07;14.80;99.90
23452;DHT22;11898;51.130;6.780;2022-10-20T11:46:43;14.80;99.90
23452;DHT22;11898;51.130;6.780;2022-10-20T11:49:11;14.80;99.90
23452;DHT22;11898;51.130;6.780;2022-10-20T11:51:52;14.80;99.90
23452;DHT22;11898;51.130;6.780;2022-10-20T11:54:31;14.70;99.90
23452;DHT22;11898;51.130;6.780;2022-10-20T12:03:20;14.60;99.90
23452;DHT22;11898;51.130;6.780;2022-10-20T12:11:54;14.70;99.90
23452;DHT22;11898;51.130;6.780;2022-10-20T12:14:34;14.70;99.90
23452;DHT22;11898;51.130;6.780;2022-10-20T12:17:09;14.70;99.90
23452;DHT22;11898;51.130;6.780;2022-10-20T12:19:33;14.80;99.90
23452;DHT22;11898;51.130;6.780;2022-10-20T12:27:26;14.80;99.90
23452;DHT22;11898;51.130;6.780;2022-10-20T12:30:00;14.80;99.90
23452;DHT22;11898;51.130;6.780;2022-10-20T12:32:34;14.70;99.90
23452;DHT22;11898;51.130;6.780;2022-10-20T12:37:41;14.70;99.90
23452;DHT22;11898;51.130;6.780;2022-10-20T12:42:48;14.80;99.90
23452;DHT22;11898;51.130;6.780;2022-10-20T12:47:54;14.90;99.90
23452;DHT22;11898;51.130;6.780;2022-10-20T12:50:37;15.00;99.90
23452;DHT22;11898;51.130;6.780;2022-10-20T12:53:23;15.00;99.90
23452;DHT22;11898;51.130;6.780;2022-10-20T12:55:44;15.00;99.90
23452;DHT22;11898;51.130;6.780;2022-10-20T13:03:42;15.20;99.90
23452;DHT22;11898;51.130;6.780;2022-10-20T13:09:19;15.30;99.90
23452;DHT22;11898;51.130;6.780;2022-10-20T13:11:59;15.40;99.90
23452;DHT22;11898;51.130;6.780;2022-10-20T13:14:41;15.50;99.90
23452;DHT22;11898;51.130;6.780;2022-10-20T13:17:23;15.50;99.90
23452;DHT22;11898;51.130;6.780;2022-10-20T13:20:00;15.70;99.90
23452;DHT22;11898;51.130;6.780;2022-10-20T13:22:37;15.70;99.90
23452;DHT22;11898;51.130;6.780;2022-10-20T13:25:17;15.60;99.90
23452;DHT22;11898;51.130;6.780;2022-10-20T13:27:40;15.60;99.90
23452;DHT22;11898;51.130;6.780;2022-10-20T13:30:13;15.60;99.90
23452;DHT22;11898;51.130;6.780;2022-10-20T13:32:50;15.60;99.90
23452;DHT22;11898;51.130;6.780;2022-10-20T13:35:28;15.60;99.90
23452;DHT22;11898;51.130;6.780;2022-10-20T13:38:17;15.60;99.90
23452;DHT22;11898;51.130;6.780;2022-10-20T13:40:49;15.50;99.90
23452;DHT22;11898;51.130;6.780;2022-10-20T13:43:45;15.50;99.90
23452;DHT22;11898;51.130;6.780;2022-10-20T13:49:08;15.60;99.90
23452;DHT22;11898;51.130;6.780;2022-10-20T13:51:43;15.70;99.90
23452;DHT22;11898;51.130;6.780;2022-10-20T13:54:21;15.70;99.90
23452;DHT22;11898;51.130;6.780;2022-10-20T13:56:47;15.70;99.90
23452;DHT22;11898;51.130;6.780;2022-10-20T13:59:27;15.90;99.90
23452;DHT22;11898;51.130;6.780;2022-10-20T14:01:59;16.10;99.90
23452;DHT22;11898;51.130;6.780;2022-10-20T14:07:05;16.00;99.90
23452;DHT22;11898;51.130;6.780;2022-10-20T14:09:36;16.10;99.90
23452;DHT22;11898;51.130;6.780;2022-10-20T14:17:24;16.10;99.90
23452;DHT22;11898;51.130;6.780;2022-10-20T14:19:49;16.10;99.90
23452;DHT22;11898;51.130;6.780;2022-10-20T14:22:20;16.30;99.90
23452;DHT22;11898;51.130;6.780;2022-10-20T14:24:56;16.10;99.90
23452;DHT22;11898;51.130;6.780;2022-10-20T14:27:29;16.30;99.90
23452;DHT22;11898;51.130;6.780;2022-10-20T14:29:59;16.10;99.90
23452;DHT22;11898;51.130;6.780;2022-10-20T14:32:30;16.20;99.90
23452;DHT22;11898;51.130;6.780;2022-10-20T14:35:10;16.20;99.90
23452;DHT22;11898;51.130;6.780;2022-10-20T14:37:37;16.40;99.90
23452;DHT22;11898;51.130;6.780;2022-10-20T14:40:18;16.30;99.90
23452;DHT22;11898;51.130;6.780;2022-10-20T14:42:47;16.20;99.90
23452;DHT22;11898;51.130;6.780;2022-10-20T14:45:22;16.30;99.90
23452;DHT22;11898;51.130;6.780;2022-10-20T14:47:51;16.20;99.90
23452;DHT22;11898;51.130;6.780;2022-10-20T14:50:26;16.20;99.90
23452;DHT22;11898;51.130;6.780;2022-10-20T14:52:55;16.30;99.90
23452;DHT22;11898;51.130;6.780;2022-10-20T14:57:57;16.20;99.90
23452;DHT22;11898;51.130;6.780;2022-10-20T15:00:31;16.30;99.90
23452;DHT22;11898;51.130;6.780;2022-10-20T15:03:03;16.30;99.90
23452;DHT22;11898;51.130;6.780;2022-10-20T15:05:41;16.20;99.90
23452;DHT22;11898;51.130;6.780;2022-10-20T15:08:06;16.20;99.90
23452;DHT22;11898;51.130;6.780;2022-10-20T15:10:35;16.30;99.90
23452;DHT22;11898;51.130;6.780;2022-10-20T15:13:16;16.20;99.90
23452;DHT22;11898;51.130;6.780;2022-10-20T15:15:37;16.20;99.90
23452;DHT22;11898;51.130;6.780;2022-10-20T15:18:09;16.10;99.90
23452;DHT22;11898;51.130;6.780;2022-10-20T15:23:12;16.10;99.90
23452;DHT22;11898;51.130;6.780;2022-10-20T15:38:32;16.10;99.90
23452;DHT22;11898;51.130;6.780;2022-10-20T15:41:01;16.00;99.90
23452;DHT22;11898;51.130;6.780;2022-10-20T15:43:29;15.90;99.90
23452;DHT22;11898;51.130;6.780;2022-10-20T15:45:58;15.90;99.90
23452;DHT22;11898;51.130;6.780;2022-10-20T15:48:28;15.90;99.90
23452;DHT22;11898;51.130;6.780;2022-10-20T15:50:57;15.90;99.90
23452;DHT22;11898;51.130;6.780;2022-10-20T15:53:28;15.90;99.90
23452;DHT22;11898;51.130;6.780;2022-10-20T15:55:57;15.90;99.90
23452;DHT22;11898;51.130;6.780;2022-10-20T15:58:26;15.90;99.90
23452;DHT22;11898;51.130;6.780;2022-10-20T16:00:54;15.70;99.90
23452;DHT22;11898;51.130;6.780;2022-10-20T16:03:23;15.70;99.90
23452;DHT22;11898;51.130;6.780;2022-10-20T16:05:51;15.80;99.90
23452;DHT22;11898;51.130;6.780;2022-10-20T16:08:20;15.80;99.90
23452;DHT22;11898;51.130;6.780;2022-10-20T16:10:49;15.80;99.90
23452;DHT22;11898;51.130;6.780;2022-10-20T16:13:17;15.70;99.90
23452;DHT22;11898;51.130;6.780;2022-10-20T16:15:47;15.80;99.90
23452;DHT22;11898;51.130;6.780;2022-10-20T16:18:16;15.70;99.90
23452;DHT22;11898;51.130;6.780;2022-10-20T16:20:44;15.70;99.90
23452;DHT22;11898;51.130;6.780;2022-10-20T16:23:13;15.60;99.90
23452;DHT22;11898;51.130;6.780;2022-10-20T16:25:42;15.60;99.90
23452;DHT22;11898;51.130;6.780;2022-10-20T16:28:10;15.70;99.90
23452;DHT22;11898;51.130;6.780;2022-10-20T16:30:39;15.70;99.90
23452;DHT22;11898;51.130;6.780;2022-10-20T16:33:08;15.60;99.90
23452;DHT22;11898;51.130;6.780;2022-10-20T16:35:43;15.70;99.90
23452;DHT22;11898;51.130;6.780;2022-10-20T16:38:12;15.60;99.90
23452;DHT22;11898;51.130;6.780;2022-10-20T16:40:41;15.50;99.90
23452;DHT22;11898;51.130;6.780;2022-10-20T16:43:09;15.60;99.90
23452;DHT22;11898;51.130;6.780;2022-10-20T16:45:38;15.60;99.90
23452;DHT22;11898;51.130;6.780;2022-10-20T16:48:07;15.50;99.90
23452;DHT22;11898;51.130;6.780;2022-10-20T16:50:39;15.50;99.90
23452;DHT22;11898;51.130;6.780;2022-10-20T16:53:08;15.50;99.90
23452;DHT22;11898;51.130;6.780;2022-10-20T16:55:36;15.60;99.90
23452;DHT22;11898;51.130;6.780;2022-10-20T16:58:05;15.60;99.90
23452;DHT22;11898;51.130;6.780;2022-10-20T17:00:33;15.60;99.90
23452;DHT22;11898;51.130;6.780;2022-10-20T17:03:02;15.50;99.90
23452;DHT22;11898;51.130;6.780;2022-10-20T17:05:31;15.60;99.90
23452;DHT22;11898;51.130;6.780;2022-10-20T17:27:47;15.60;99.90
23452;DHT22;11898;51.130;6.780;2022-10-20T17:30:15;15.50;99.90
23452;DHT22;11898;51.130;6.780;2022-10-20T17:32:44;15.40;99.90
23452;DHT22;11898;51.130;6.780;2022-10-20T17:35:12;15.40;99.90
23452;DHT22;11898;51.130;6.780;2022-10-20T17:37:41;15.40;99.90
23452;DHT22;11898;51.130;6.780;2022-10-20T17:40:10;15.50;99.90
23452;DHT22;11898;51.130;6.780;2022-10-20T17:42:38;15.40;99.90
23452;DHT22;11898;51.130;6.780;2022-10-20T17:45:07;15.50;99.90
23452;DHT22;11898;51.130;6.780;2022-10-20T17:47:36;15.30;99.90
23452;DHT22;11898;51.130;6.780;2022-10-20T17:50:05;15.30;99.90
23452;DHT22;11898;51.130;6.780;2022-10-20T17:52:35;15.50;99.90
23452;DHT22;11898;51.130;6.780;2022-10-20T17:55:05;15.50;99.90
23452;DHT22;11898;51.130;6.780;2022-10-20T17:57:34;15.70;99.90
23452;DHT22;11898;51.130;6.780;2022-10-20T18:00:03;15.60;99.90
23452;DHT22;11898;51.130;6.780;2022-10-20T18:02:37;15.50;99.90
23452;DHT22;11898;51.130;6.780;2022-10-20T18:05:04;15.50;99.90
23452;DHT22;11898;51.130;6.780;2022-10-20T18:07:33;15.40;99.90
23452;DHT22;11898;51.130;6.780;2022-10-20T18:10:02;15.50;99.90
23452;DHT22;11898;51.130;6.780;2022-10-20T18:12:33;15.50;99.90
23452;DHT22;11898;51.130;6.780;2022-10-20T18:15:03;15.50;99.90
23452;DHT22;11898;51.130;6.780;2022-10-20T18:17:34;15.50;99.90
23452;DHT22;11898;51.130;6.780;2022-10-20T18:20:03;15.40;99.90
23452;DHT22;11898;51.130;6.780;2022-10-20T18:22:31;15.40;99.90
23452;DHT22;11898;51.130;6.780;2022-10-20T18:25:00;15.40;99.90
23452;DHT22;11898;51.130;6.780;2022-10-20T18:27:29;15.50;99.90
23452;DHT22;11898;51.130;6.780;2022-10-20T18:29:57;15.40;99.90
23452;DHT22;11898;51.130;6.780;2022-10-20T18:32:26;15.60;99.90
23452;DHT22;11898;51.130;6.780;2022-10-20T18:34:54;15.40;99.90
23452;DHT22;11898;51.130;6.780;2022-10-20T18:37:23;15.60;99.90
23452;DHT22;11898;51.130;6.780;2022-10-20T18:39:52;15.60;99.90
23452;DHT22;11898;51.130;6.780;2022-10-20T18:42:20;15.60;99.90
23452;DHT22;11898;51.130;6.780;2022-10-20T18:44:49;15.60;99.90
23452;DHT22;11898;51.130;6.780;2022-10-20T18:47:17;15.40;99.90
23452;DHT22;11898;51.130;6.780;2022-10-20T18:54:42;15.50;99.90
23452;DHT22;11898;51.130;6.780;2022-10-20T18:57:11;15.40;99.90
23452;DHT22;11898;51.130;6.780;2022-10-20T19:00:00;15.40;99.90
23452;DHT22;11898;51.130;6.780;2022-10-20T19:02:29;15.50;99.90
23452;DHT22;11898;51.130;6.780;2022-10-20T19:04:58;15.60;99.90
23452;DHT22;11898;51.130;6.780;2022-10-20T19:07:27;15.50;99.90
23452;DHT22;11898;51.130;6.780;2022-10-20T19:09:55;15.60;99.90
23452;DHT22;11898;51.130;6.780;2022-10-20T19:12:24;15.50;99.90
23452;DHT22;11898;51.130;6.780;2022-10-20T19:14:54;15.60;99.90
23452;DHT22;11898;51.130;6.780;2022-10-20T19:17:22;15.50;99.90
23452;DHT22;11898;51.130;6.780;2022-10-20T19:19:53;15.60;99.90
23452;DHT22;11898;51.130;6.780;2022-10-20T19:22:21;15.70;99.90
23452;DHT22;11898;51.130;6.780;2022-10-20T19:24:51;15.60;99.90
23452;DHT22;11898;51.130;6.780;2022-10-20T19:27:20;15.60;99.90
23452;DHT22;11898;51.130;6.780;2022-10-20T19:29:50;15.70;99.90
23452;DHT22;11898;51.130;6.780;2022-10-20T19:32:19;15.60;99.90
23452;DHT22;11898;51.130;6.780;2022-10-20T19:34:48;15.60;99.90
23452;DHT22;11898;51.130;6.780;2022-10-20T19:37:17;15.60;99.90
23452;DHT22;11898;51.130;6.780;2022-10-20T19:39:47;15.60;99.90
23452;DHT22;11898;51.130;6.780;2022-10-20T19:42:16;15.60;99.90
23452;DHT22;11898;51.130;6.780;2022-10-20T19:44:44;15.40;99.90
23452;DHT22;11898;51.130;6.780;2022-10-20T19:47:13;16.70;99.90
23452;DHT22;11898;51.130;6.780;2022-10-20T19:49:42;15.60;99.90
23452;DHT22;11898;51.130;6.780;2022-10-20T19:52:11;15.60;99.90
23452;DHT22;11898;51.130;6.780;2022-10-20T19:54:40;15.60;99.90
23452;DHT22;11898;51.130;6.780;2022-10-20T19:57:09;15.50;99.90
23452;DHT22;11898;51.130;6.780;2022-10-20T19:59:38;15.60;99.90
23452;DHT22;11898;51.130;6.780;2022-10-20T20:02:06;15.60;99.90
23452;DHT22;11898;51.130;6.780;2022-10-20T20:04:35;15.60;99.90
23452;DHT22;11898;51.130;6.780;2022-10-20T20:07:04;15.60;99.90
23452;DHT22;11898;51.130;6.780;2022-10-20T20:09:32;15.60;99.90
23452;DHT22;11898;51.130;6.780;2022-10-20T20:14:29;15.50;99.90
23452;DHT22;11898;51.130;6.780;2022-10-20T20:16:58;15.50;99.90
23452;DHT22;11898;51.130;6.780;2022-10-20T20:19:26;15.50;99.90
23452;DHT22;11898;51.130;6.780;2022-10-20T20:21:55;15.50;99.90
23452;DHT22;11898;51.130;6.780;2022-10-20T22:21:44;15.60;99.90
23452;DHT22;11898;51.130;6.780;2022-10-20T22:24:13;16.10;99.90
23452;DHT22;11898;51.130;6.780;2022-10-20T22:26:43;16.20;99.90
23452;DHT22;11898;51.130;6.780;2022-10-20T22:29:12;16.20;99.90
23452;DHT22;11898;51.130;6.780;2022-10-20T22:31:40;16.20;99.90
23452;DHT22;11898;51.130;6.780;2022-10-20T22:36:58;16.00;99.90
23452;DHT22;11898;51.130;6.780;2022-10-20T22:39:27;16.10;99.90
23452;DHT22;11898;51.130;6.780;2022-10-20T22:41:55;16.10;99.90
23452;DHT22;11898;51.130;6.780;2022-10-20T22:44:24;16.20;99.90
23452;DHT22;11898;51.130;6.780;2022-10-20T22:46:52;16.20;99.90
